createdAt,value
2023-05-19T00:00:34.921Z,12.25
2023-05-19T00:02:34.556Z,12.25
2023-05-19T00:04:34.299Z,12.25
2023-05-19T00:06:34.462Z,12.125
2023-05-19T00:08:34.296Z,12.188
2023-05-19T00:10:34.712Z,12.125
2023-05-19T00:12:34.323Z,12.063
2023-05-19T00:14:34.288Z,12.125
2023-05-19T00:16:34.646Z,12.125
2023-05-19T00:18:34.301Z,12.125
2023-05-19T00:20:34.859Z,12.125
2023-05-19T00:22:34.373Z,12.125
2023-05-19T00:24:34.281Z,12.063
2023-05-19T00:26:34.337Z,12
2023-05-19T00:28:34.317Z,12.063
2023-05-19T00:30:34.707Z,12.063
2023-05-19T00:32:34.532Z,12
2023-05-19T00:34:34.311Z,12
2023-05-19T00:36:34.362Z,12
2023-05-19T00:38:34.368Z,12
2023-05-19T00:40:34.748Z,12
2023-05-19T00:42:34.314Z,11.937
2023-05-19T00:44:34.326Z,11.937
2023-05-19T00:46:34.474Z,12
2023-05-19T00:48:34.310Z,11.875
2023-05-19T00:50:35.016Z,11.813
2023-05-19T00:52:34.312Z,11.813
2023-05-19T00:54:34.427Z,11.813
2023-05-19T00:56:34.326Z,11.75
2023-05-19T00:58:34.338Z,11.75
2023-05-19T01:00:35.104Z,11.75
2023-05-19T01:02:34.461Z,11.75
2023-05-19T01:04:34.380Z,11.688
2023-05-19T01:06:34.332Z,11.75
2023-05-19T01:08:34.335Z,11.688
2023-05-19T01:10:34.556Z,11.688
2023-05-19T01:12:34.354Z,11.625
2023-05-19T01:14:34.361Z,11.563
2023-05-19T01:16:34.412Z,11.625
2023-05-19T01:18:34.345Z,11.563
2023-05-19T01:20:34.571Z,11.563
2023-05-19T01:22:34.358Z,11.563
2023-05-19T01:24:34.366Z,11.438
2023-05-19T01:26:34.422Z,11.5
2023-05-19T01:28:34.358Z,11.5
2023-05-19T01:30:34.840Z,11.438
2023-05-19T01:32:34.537Z,11.5
2023-05-19T01:34:34.359Z,11.438
2023-05-19T01:36:34.366Z,11.375
2023-05-19T01:38:34.365Z,11.375
2023-05-19T01:40:34.729Z,11.375
2023-05-19T01:42:34.497Z,11.375
2023-05-19T01:44:34.387Z,11.312
2023-05-19T01:46:34.613Z,11.312
2023-05-19T01:48:34.410Z,11.312
2023-05-19T01:50:35.093Z,11.25
2023-05-19T01:52:34.381Z,11.25
2023-05-19T01:54:34.388Z,11.312
2023-05-19T01:56:34.369Z,11.25
2023-05-19T01:58:34.431Z,11.25
2023-05-19T02:00:34.811Z,11.25
2023-05-19T02:02:34.401Z,11.25
2023-05-19T02:04:34.509Z,11.25
2023-05-19T02:06:34.394Z,11.25
2023-05-19T02:08:34.546Z,11.188
2023-05-19T02:10:34.708Z,11.188
2023-05-19T02:12:34.410Z,11.188
2023-05-19T02:14:34.573Z,11.125
2023-05-19T02:16:34.571Z,11.188
2023-05-19T02:18:34.397Z,11.188
2023-05-19T02:20:34.902Z,11.125
2023-05-19T02:22:34.403Z,11.063
2023-05-19T02:24:34.382Z,11.125
2023-05-19T02:26:34.390Z,11.063
2023-05-19T02:28:34.395Z,11.063
2023-05-19T02:30:34.998Z,11.063
2023-05-19T02:32:34.605Z,11.063
2023-05-19T02:34:34.395Z,11.063
2023-05-19T02:36:34.425Z,11.125
2023-05-19T02:38:34.399Z,11.063
2023-05-19T02:40:34.826Z,11
2023-05-19T02:42:34.401Z,11.063
2023-05-19T02:44:34.412Z,11.063
2023-05-19T02:46:34.753Z,11.063
2023-05-19T02:48:34.414Z,11
2023-05-19T02:50:34.587Z,11.063
2023-05-19T02:52:34.433Z,11
2023-05-19T02:54:34.419Z,11.063
2023-05-19T02:56:34.415Z,11.063
2023-05-19T02:58:34.531Z,11
2023-05-19T03:00:34.868Z,11.063
2023-05-19T03:02:34.876Z,11
2023-05-19T03:04:34.424Z,11
2023-05-19T03:06:34.441Z,11
2023-05-19T03:08:34.410Z,11
2023-05-19T03:10:34.547Z,10.938
2023-05-19T03:12:34.514Z,10.938
2023-05-19T03:14:34.434Z,10.938
2023-05-19T03:16:34.632Z,11
2023-05-19T03:18:34.520Z,10.938
2023-05-19T03:20:34.769Z,11
2023-05-19T03:22:34.446Z,10.938
2023-05-19T03:24:34.451Z,10.938
2023-05-19T03:26:34.439Z,10.875
2023-05-19T03:28:34.457Z,10.875
2023-05-19T03:30:34.791Z,10.875
2023-05-19T03:32:34.772Z,10.875
2023-05-19T03:34:34.601Z,10.875
2023-05-19T03:36:34.474Z,10.813
2023-05-19T03:38:34.463Z,10.875
2023-05-19T03:40:34.853Z,10.875
2023-05-19T03:42:34.486Z,10.875
2023-05-19T03:44:34.466Z,10.875
2023-05-19T03:46:34.461Z,10.813
2023-05-19T03:48:34.472Z,11
2023-05-19T03:50:35.063Z,11
2023-05-19T03:52:34.473Z,10.813
2023-05-19T03:54:34.467Z,10.813
2023-05-19T03:56:34.489Z,10.813
2023-05-19T03:58:34.467Z,10.875
2023-05-19T04:00:35.235Z,10.938
2023-05-19T04:02:34.726Z,10.875
2023-05-19T04:04:34.647Z,10.813
2023-05-19T04:06:34.584Z,10.813
2023-05-19T04:08:34.472Z,10.875
2023-05-19T04:10:34.769Z,10.875
2023-05-19T04:12:34.480Z,10.813
2023-05-19T04:14:34.516Z,10.813
2023-05-19T04:16:34.498Z,10.875
2023-05-19T04:18:34.489Z,10.813
2023-05-19T04:20:35.050Z,10.938
2023-05-19T04:22:34.574Z,10.938
2023-05-19T04:24:34.486Z,10.938
2023-05-19T04:26:34.693Z,10.875
2023-05-19T04:28:34.485Z,10.875
2023-05-19T04:30:35.020Z,10.938
2023-05-19T04:32:34.693Z,10.938
2023-05-19T04:34:34.512Z,10.875
2023-05-19T04:36:34.498Z,10.875
2023-05-19T04:38:34.732Z,10.875
2023-05-19T04:40:35.073Z,10.875
2023-05-19T04:42:34.559Z,10.875
2023-05-19T04:44:34.501Z,10.875
2023-05-19T04:46:34.600Z,10.938
2023-05-19T04:48:34.521Z,10.875
2023-05-19T04:50:34.971Z,10.813
2023-05-19T04:52:34.588Z,10.875
2023-05-19T04:54:34.572Z,10.938
2023-05-19T04:56:34.523Z,10.938
2023-05-19T04:58:34.561Z,11
2023-05-19T05:00:34.895Z,10.938
2023-05-19T05:02:34.832Z,10.875
2023-05-19T05:04:34.519Z,10.938
2023-05-19T05:06:34.545Z,10.938
2023-05-19T05:08:34.518Z,10.938
2023-05-19T05:10:35.174Z,10.938
2023-05-19T05:12:34.744Z,10.938
2023-05-19T05:14:34.545Z,10.938
2023-05-19T05:16:34.769Z,11
2023-05-19T05:18:34.547Z,11
2023-05-19T05:20:34.837Z,11
2023-05-19T05:22:34.533Z,11
2023-05-19T05:24:34.549Z,11
2023-05-19T05:26:34.729Z,11.063
2023-05-19T05:28:34.536Z,11.063
2023-05-19T05:30:34.593Z,11.125
2023-05-19T05:32:34.736Z,11
2023-05-19T05:34:34.567Z,11
2023-05-19T05:36:34.531Z,11.063
2023-05-19T05:38:34.560Z,11.063
2023-05-19T05:40:34.548Z,11.125
2023-05-19T05:42:34.716Z,11.188
2023-05-19T05:44:34.569Z,11.063
2023-05-19T05:46:34.804Z,11.125
2023-05-19T05:48:34.568Z,11.125
2023-05-19T05:50:34.559Z,11.125
2023-05-19T05:52:34.560Z,11.125
2023-05-19T05:54:34.717Z,11.188
2023-05-19T05:56:34.577Z,11.125
2023-05-19T05:58:37.352Z,11.125
2023-05-19T06:00:35.120Z,11.188
2023-05-19T06:02:34.776Z,11.188
2023-05-19T06:04:34.574Z,11.25
2023-05-19T06:06:34.577Z,11.125
2023-05-19T06:08:34.581Z,11.25
2023-05-19T06:10:35.168Z,11.312
2023-05-19T06:12:34.612Z,11.25
2023-05-19T06:14:34.794Z,11.312
2023-05-19T06:16:34.859Z,11.312
2023-05-19T06:18:34.618Z,11.312
2023-05-19T06:20:35.260Z,11.312
2023-05-19T06:22:34.590Z,11.375
2023-05-19T06:24:34.608Z,11.375
2023-05-19T06:26:34.599Z,11.375
2023-05-19T06:28:34.590Z,11.438
2023-05-19T06:30:35.243Z,11.438
2023-05-19T06:32:34.766Z,11.438
2023-05-19T06:34:34.616Z,11.375
2023-05-19T06:36:34.616Z,11.438
2023-05-19T06:38:34.596Z,11.375
2023-05-19T06:40:35.280Z,11.438
2023-05-19T06:42:34.604Z,11.438
2023-05-19T06:44:34.633Z,11.5
2023-05-19T06:46:34.879Z,11.5
2023-05-19T06:48:34.613Z,11.563
2023-05-19T06:50:35.123Z,11.563
2023-05-19T06:52:34.615Z,11.563
2023-05-19T06:54:34.633Z,11.625
2023-05-19T06:56:34.617Z,11.563
2023-05-19T06:58:34.637Z,11.625
2023-05-19T07:00:34.996Z,11.625
2023-05-19T07:02:34.874Z,11.688
2023-05-19T07:04:34.636Z,11.688
2023-05-19T07:06:34.634Z,11.625
2023-05-19T07:08:34.657Z,11.688
2023-05-19T07:10:35.257Z,11.625
2023-05-19T07:12:34.645Z,11.75
2023-05-19T07:14:34.651Z,11.75
2023-05-19T07:16:34.870Z,11.75
2023-05-19T07:18:34.703Z,11.813
2023-05-19T07:20:34.981Z,11.813
2023-05-19T07:22:34.639Z,11.875
2023-05-19T07:24:34.650Z,11.813
2023-05-19T07:26:34.755Z,11.875
2023-05-19T07:28:34.705Z,11.875
2023-05-19T07:30:35.147Z,11.875
2023-05-19T07:32:34.802Z,11.937
2023-05-19T07:34:34.868Z,12.063
2023-05-19T07:36:34.652Z,12
2023-05-19T07:38:34.919Z,12.063
2023-05-19T07:40:35.007Z,12.063
2023-05-19T07:42:34.657Z,12.063
2023-05-19T07:44:34.660Z,12.125
2023-05-19T07:46:34.905Z,12.188
2023-05-19T07:48:34.687Z,12.25
2023-05-19T07:50:35.016Z,12.25
2023-05-19T07:52:34.714Z,12.25
2023-05-19T07:54:34.722Z,12.313
2023-05-19T07:56:34.686Z,12.313
2023-05-19T07:58:34.719Z,12.375
2023-05-19T08:00:35.219Z,12.438
2023-05-19T08:02:34.934Z,12.375
2023-05-19T08:04:34.891Z,12.5
2023-05-19T08:06:34.808Z,12.438
2023-05-19T08:08:34.688Z,12.5
2023-05-19T08:10:35.343Z,12.5
2023-05-19T08:12:34.695Z,12.562
2023-05-19T08:14:34.678Z,12.625
2023-05-19T08:16:34.692Z,18.375
2023-05-19T08:18:34.707Z,18.25
2023-05-19T08:20:35.403Z,18.125
2023-05-19T08:22:34.896Z,18.125
2023-05-19T08:24:34.800Z,18.125
2023-05-19T08:26:38.032Z,18.125
2023-05-19T08:28:34.743Z,18.125
2023-05-19T08:30:35.062Z,18.125
2023-05-19T08:32:34.875Z,18.187
2023-05-19T08:34:34.741Z,18.125
2023-05-19T08:36:34.747Z,18.125
2023-05-19T08:38:34.881Z,18.25
2023-05-19T08:40:35.329Z,18.187
2023-05-19T08:42:34.734Z,18.187
2023-05-19T08:44:34.727Z,18.187
2023-05-19T08:46:34.906Z,18.187
2023-05-19T08:48:34.766Z,18.312
2023-05-19T08:50:35.331Z,18.187
2023-05-19T08:52:34.754Z,18.25
2023-05-19T08:54:34.968Z,18.25
2023-05-19T08:56:34.741Z,18.312
2023-05-19T08:58:34.755Z,18.312
2023-05-19T09:00:35.726Z,18.312
2023-05-19T09:02:34.890Z,18.312
2023-05-19T09:04:35.228Z,18.375
2023-05-19T09:06:34.770Z,18.375
2023-05-19T09:08:34.759Z,18.312
2023-05-19T09:10:34.866Z,18.312
2023-05-19T09:12:34.754Z,18.375
2023-05-19T09:14:34.763Z,18.375
2023-05-19T09:16:34.822Z,18.375
2023-05-19T09:18:34.783Z,18.375
2023-05-19T09:20:34.785Z,18.375
2023-05-19T09:22:34.791Z,18.375
2023-05-19T09:24:34.876Z,18.375
2023-05-19T09:26:34.942Z,18.375
2023-05-19T09:28:34.759Z,18.375
2023-05-19T09:30:34.759Z,18.437
2023-05-19T09:32:34.845Z,18.437
2023-05-19T09:34:34.774Z,18.437
2023-05-19T09:36:34.819Z,18.437
2023-05-19T09:38:34.757Z,18.5
2023-05-19T09:40:34.868Z,18.5
2023-05-19T09:42:34.931Z,18.562
2023-05-19T09:44:34.777Z,18.437
2023-05-19T09:46:35.285Z,18.5
2023-05-19T09:48:34.954Z,18.5
2023-05-19T09:50:34.798Z,18.5
2023-05-19T09:52:34.777Z,18.5
2023-05-19T09:54:34.789Z,18.5
2023-05-19T09:56:34.826Z,18.562
2023-05-19T09:58:35.395Z,18.625
2023-05-19T10:00:35.462Z,18.562
2023-05-19T10:02:35.005Z,18.625
2023-05-19T10:04:34.990Z,18.625
2023-05-19T10:06:34.821Z,18.75
2023-05-19T10:08:34.835Z,18.75
2023-05-19T10:10:34.833Z,18.687
2023-05-19T10:12:34.909Z,18.687
2023-05-19T10:14:34.963Z,18.687
2023-05-19T10:16:34.870Z,18.687
2023-05-19T10:18:34.840Z,18.75
2023-05-19T10:20:35.336Z,18.687
2023-05-19T10:22:34.834Z,18.75
2023-05-19T10:24:34.825Z,18.75
2023-05-19T10:26:34.842Z,18.75
2023-05-19T10:28:34.847Z,18.75
2023-05-19T10:30:34.921Z,18.75
2023-05-19T10:32:35.091Z,18.812
2023-05-19T10:34:34.843Z,18.875
2023-05-19T10:36:34.834Z,18.812
2023-05-19T10:38:34.984Z,18.75
2023-05-19T10:40:34.845Z,18.812
2023-05-19T10:42:34.879Z,18.875
2023-05-19T10:44:34.933Z,18.812
2023-05-19T10:46:35.081Z,18.75
2023-05-19T10:48:34.855Z,18.75
2023-05-19T10:50:34.864Z,18.75
2023-05-19T10:52:34.861Z,18.875
2023-05-19T10:54:34.879Z,18.812
2023-05-19T10:56:34.894Z,18.875
2023-05-19T10:58:34.862Z,18.812
2023-05-19T11:00:34.900Z,18.875
2023-05-19T11:02:35.129Z,18.875
2023-05-19T11:04:35.007Z,18.937
2023-05-19T11:06:34.981Z,18.937
2023-05-19T11:08:34.895Z,18.812
2023-05-19T11:10:34.907Z,18.937
2023-05-19T11:12:34.882Z,18.937
2023-05-19T11:14:35.036Z,18.875
2023-05-19T11:16:35.073Z,18.937
2023-05-19T11:18:35.049Z,19
2023-05-19T11:20:35.102Z,18.937
2023-05-19T11:22:34.896Z,18.937
2023-05-19T11:24:34.939Z,19
2023-05-19T11:26:34.903Z,19
2023-05-19T11:28:34.912Z,18.937
2023-05-19T11:30:34.924Z,19.062
2023-05-19T11:32:35.099Z,19
2023-05-19T11:34:34.984Z,19
2023-05-19T11:36:35.020Z,19.062
2023-05-19T11:38:34.917Z,19.062
2023-05-19T11:40:34.922Z,19.062
2023-05-19T11:42:34.940Z,19.062
2023-05-19T11:44:35.109Z,19.062
2023-05-19T11:46:35.079Z,19.125
2023-05-19T11:48:35.189Z,19.062
2023-05-19T11:50:34.972Z,19.125
2023-05-19T11:52:34.955Z,19.125
2023-05-19T11:54:35.733Z,19.125
2023-05-19T11:56:35.034Z,19.125
2023-05-19T11:58:34.941Z,19.125
2023-05-19T12:00:34.942Z,19.125
2023-05-19T12:02:35.128Z,19.125
2023-05-19T12:04:35.100Z,19.125
2023-05-19T12:06:35.186Z,19.187
2023-05-19T12:08:34.942Z,19.187
2023-05-19T12:10:34.974Z,19.125
2023-05-19T12:12:34.954Z,19.187
2023-05-19T12:14:34.957Z,19.25
2023-05-19T12:16:35.198Z,19.25
2023-05-19T12:18:34.960Z,19.25
2023-05-19T12:20:34.977Z,19.25
2023-05-19T12:22:35.044Z,19.25
2023-05-19T12:24:34.979Z,19.187
2023-05-19T12:26:34.966Z,19.25
2023-05-19T12:28:34.981Z,19.25
2023-05-19T12:30:36.020Z,19.25
2023-05-19T12:32:35.225Z,19.312
2023-05-19T12:34:35.007Z,19.312
2023-05-19T12:36:34.993Z,19.25
2023-05-19T12:38:35.055Z,19.25
2023-05-19T12:40:36.571Z,19.25
2023-05-19T12:42:34.998Z,19.25
2023-05-19T12:44:35.000Z,19.187
2023-05-19T12:46:34.994Z,19.187
2023-05-19T12:48:35.004Z,19.25
2023-05-19T12:50:35.775Z,19.25
2023-05-19T12:52:35.012Z,19.25
2023-05-19T12:54:35.187Z,19.25
2023-05-19T12:56:35.015Z,19.375
2023-05-19T12:58:35.055Z,19.312
2023-05-19T13:00:35.431Z,19.312
2023-05-19T13:02:35.267Z,19.312
2023-05-19T13:04:35.025Z,19.312
2023-05-19T13:06:35.033Z,19.312
2023-05-19T13:08:35.034Z,19.312
2023-05-19T13:10:35.652Z,19.375
2023-05-19T13:12:35.029Z,19.375
2023-05-19T13:14:35.046Z,19.375
2023-05-19T13:16:35.317Z,19.437
2023-05-19T13:18:35.031Z,19.375
2023-05-19T13:20:35.441Z,19.437
2023-05-19T13:22:35.045Z,19.375
2023-05-19T13:24:35.067Z,19.375
2023-05-19T13:26:35.204Z,19.437
2023-05-19T13:28:35.055Z,19.437
2023-05-19T13:30:36.116Z,19.437
2023-05-19T13:32:35.203Z,19.437
2023-05-19T13:34:35.058Z,19.375
2023-05-19T13:36:35.267Z,19.437
2023-05-19T13:38:35.141Z,19.437
2023-05-19T13:40:35.661Z,19.437
2023-05-19T13:42:35.191Z,19.437
2023-05-19T13:44:35.184Z,19.437
2023-05-19T13:46:46.464Z,19.437
2023-05-19T13:48:35.229Z,19.5
2023-05-19T13:50:35.096Z,19.5
2023-05-19T13:52:35.096Z,19.437
2023-05-19T13:54:35.080Z,19.437
2023-05-19T13:56:35.084Z,19.5
2023-05-19T13:58:35.173Z,19.437
2023-05-19T14:00:36.416Z,19.5
2023-05-19T14:02:36.949Z,19.5
2023-05-19T14:04:35.083Z,19.5
2023-05-19T14:06:35.099Z,19.5
2023-05-19T14:08:35.091Z,19.5
2023-05-19T14:10:35.868Z,19.5
2023-05-19T14:13:14.447Z,19.437
2023-05-19T14:14:40.574Z,19.5
2023-05-19T14:16:40.555Z,19.5
2023-05-19T14:18:40.548Z,19.437
2023-05-19T14:20:40.442Z,19.437
2023-05-19T14:22:40.411Z,19.437
2023-05-19T14:24:40.431Z,19.437
2023-05-19T14:26:40.452Z,19.5
2023-05-19T14:28:40.437Z,19.5
2023-05-19T14:30:40.648Z,19.5
2023-05-19T14:32:40.536Z,19.437
2023-05-19T14:34:40.458Z,19.437
2023-05-19T14:36:40.462Z,19.437
2023-05-19T14:38:40.460Z,19.437
2023-05-19T14:40:40.480Z,19.5
2023-05-19T14:42:40.438Z,19.562
2023-05-19T14:44:40.535Z,19.5
2023-05-19T14:46:40.772Z,19.562
2023-05-19T14:48:40.468Z,19.562
2023-05-19T14:50:40.485Z,19.562
2023-05-19T14:52:40.566Z,19.562
2023-05-19T14:54:40.495Z,19.562
2023-05-19T14:56:40.481Z,19.562
2023-05-19T14:58:40.495Z,19.562
2023-05-19T15:00:40.479Z,19.625
2023-05-19T15:02:40.713Z,19.625
2023-05-19T15:04:40.482Z,19.687
2023-05-19T15:06:40.473Z,19.625
2023-05-19T15:08:40.521Z,19.625
2023-05-19T15:10:40.478Z,19.625
2023-05-19T15:12:40.698Z,19.562
2023-05-19T15:14:40.512Z,19.562
2023-05-19T15:16:40.640Z,19.687
2023-05-19T15:18:40.725Z,19.562
2023-05-19T15:20:40.558Z,19.625
2023-05-19T15:22:40.509Z,19.625
2023-05-19T15:24:40.498Z,19.625
2023-05-19T15:26:40.547Z,19.687
2023-05-19T15:28:40.511Z,19.625
2023-05-19T15:30:40.509Z,19.625
2023-05-19T15:32:40.670Z,19.625
2023-05-19T15:34:40.618Z,19.625
2023-05-19T15:36:40.531Z,19.625
2023-05-19T15:38:40.537Z,19.687
2023-05-19T15:40:40.531Z,19.625
2023-05-19T15:42:40.628Z,19.687
2023-05-19T15:44:40.570Z,19.687
2023-05-19T15:46:40.711Z,19.625
2023-05-19T15:48:40.525Z,19.625
2023-05-19T15:50:40.811Z,19.625
2023-05-19T15:52:40.566Z,19.625
2023-05-19T15:54:40.552Z,19.625
2023-05-19T15:56:40.532Z,19.625
2023-05-19T15:58:40.590Z,19.687
2023-05-19T16:00:40.538Z,19.687
2023-05-19T16:02:40.691Z,19.687
2023-05-19T16:04:40.597Z,19.687
2023-05-19T16:06:40.765Z,19.687
2023-05-19T16:08:40.617Z,19.625
2023-05-19T16:10:40.552Z,19.687
2023-05-19T16:12:40.554Z,19.687
2023-05-19T16:14:40.582Z,19.687
2023-05-19T16:16:40.928Z,19.687
2023-05-19T16:18:40.674Z,19.687
2023-05-19T16:20:40.576Z,19.687
2023-05-19T16:22:40.724Z,19.687
2023-05-19T16:24:40.579Z,19.75
2023-05-19T16:26:40.586Z,19.687
2023-05-19T16:28:40.641Z,19.687
2023-05-19T16:30:40.586Z,19.625
2023-05-19T16:32:41.011Z,19.687
2023-05-19T16:34:40.591Z,19.687
2023-05-19T16:36:40.628Z,19.687
2023-05-19T16:38:40.640Z,19.625
2023-05-19T16:40:40.643Z,19.687
2023-05-19T16:42:40.738Z,19.625
2023-05-19T16:44:40.598Z,19.625
2023-05-19T16:46:40.602Z,19.687
2023-05-19T16:48:40.618Z,19.687
2023-05-19T16:50:40.640Z,19.687
2023-05-19T16:52:40.608Z,19.625
2023-05-19T16:54:40.757Z,19.687
2023-05-19T16:56:40.635Z,19.625
2023-05-19T16:58:40.623Z,19.625
2023-05-19T17:00:40.617Z,19.625
2023-05-19T17:02:40.850Z,19.625
2023-05-19T17:04:40.638Z,19.687
2023-05-19T17:06:40.655Z,19.687
2023-05-19T17:08:40.713Z,19.687
2023-05-19T17:10:40.757Z,19.562
2023-05-19T17:12:40.631Z,19.625
2023-05-19T17:14:40.625Z,19.625
2023-05-19T17:16:40.780Z,19.625
2023-05-19T17:18:41.086Z,19.625
2023-05-19T17:20:40.640Z,19.562
2023-05-19T17:22:40.654Z,19.625
2023-05-19T17:24:40.658Z,19.625
2023-05-19T17:26:40.793Z,19.562
2023-05-19T17:28:40.714Z,19.625
2023-05-19T17:30:40.671Z,19.625
2023-05-19T17:32:40.976Z,19.625
2023-05-19T17:34:40.830Z,19.562
2023-05-19T17:36:40.671Z,19.562
2023-05-19T17:38:40.713Z,19.625
2023-05-19T17:40:42.385Z,19.562
2023-05-19T17:42:40.735Z,19.437
2023-05-19T17:44:40.666Z,19.25
2023-05-19T17:46:40.803Z,19.187
2023-05-19T17:48:40.786Z,19.062
2023-05-19T17:50:40.694Z,18.937
2023-05-19T17:52:40.680Z,18.875
2023-05-19T17:54:40.668Z,18.875
2023-05-19T17:56:40.742Z,18.75
2023-05-19T17:58:40.738Z,18.625
2023-05-19T18:00:40.695Z,18.562
2023-05-19T18:02:41.079Z,18.5
2023-05-19T18:04:40.706Z,18.437
2023-05-19T18:06:40.727Z,18.375
2023-05-19T18:08:40.696Z,18.312
2023-05-19T18:10:40.866Z,18.25
2023-05-19T18:12:40.710Z,18.125
2023-05-19T18:14:40.823Z,18.125
2023-05-19T18:16:41.060Z,18.062
2023-05-19T18:18:40.853Z,17.937
2023-05-19T18:20:40.708Z,17.937
2023-05-19T18:22:40.727Z,17.875
2023-05-19T18:24:40.778Z,17.812
2023-05-19T18:26:40.740Z,17.75
2023-05-19T18:28:40.765Z,17.625
2023-05-19T18:30:41.184Z,17.562
2023-05-19T18:32:40.955Z,17.5
2023-05-19T18:34:40.720Z,17.437
2023-05-19T18:36:40.826Z,17.375
2023-05-19T18:38:40.953Z,17.312
2023-05-19T18:40:40.748Z,17.187
2023-05-19T18:42:40.769Z,17.187
2023-05-19T18:44:41.004Z,17.187
2023-05-19T18:46:40.827Z,17.125
2023-05-19T18:48:40.772Z,17.062
2023-05-19T18:50:40.758Z,17
2023-05-19T18:52:40.787Z,16.937
2023-05-19T18:54:40.954Z,16.812
2023-05-19T18:56:40.765Z,16.875
2023-05-19T18:58:40.745Z,16.75
2023-05-19T19:00:40.750Z,16.687
2023-05-19T19:02:41.069Z,16.625
2023-05-19T19:04:41.031Z,16.562
2023-05-19T19:06:43.757Z,16.562
2023-05-19T19:08:40.809Z,16.437
2023-05-19T19:10:40.959Z,16.375
2023-05-19T19:12:40.783Z,16.375
2023-05-19T19:14:40.804Z,16.312
2023-05-19T19:16:40.971Z,16.25
2023-05-19T19:18:41.074Z,16.25
2023-05-19T19:20:40.817Z,16.187
2023-05-19T19:22:40.764Z,16.187
2023-05-19T19:24:40.791Z,16.187
2023-05-19T19:26:40.767Z,16.125
2023-05-19T19:28:40.769Z,16.062
2023-05-19T19:30:40.828Z,16.062
2023-05-19T19:32:40.972Z,16
2023-05-19T19:34:40.953Z,15.938
2023-05-19T19:36:40.787Z,15.875
2023-05-19T19:38:40.803Z,15.875
2023-05-19T19:40:40.817Z,15.813
2023-05-19T19:42:40.783Z,15.813
2023-05-19T19:44:40.994Z,15.813
2023-05-19T19:46:40.911Z,15.75
2023-05-19T19:48:40.818Z,15.687
2023-05-19T19:50:40.865Z,15.687
2023-05-19T19:52:40.849Z,15.687
2023-05-19T19:54:40.925Z,15.687
2023-05-19T19:56:40.828Z,15.687
2023-05-19T19:58:40.826Z,15.625
2023-05-19T20:00:40.827Z,15.563
2023-05-19T20:03:04.150Z,15.5
2023-05-19T20:04:41.105Z,15.563
2023-05-19T20:06:40.967Z,15.438
2023-05-19T20:08:40.851Z,15.5
2023-05-19T20:10:40.826Z,15.438
2023-05-19T20:12:40.848Z,15.375
2023-05-19T20:14:40.822Z,15.375
2023-05-19T20:16:41.204Z,15.375
2023-05-19T20:18:40.981Z,15.313
2023-05-19T20:20:40.832Z,15.313
2023-05-19T20:22:40.988Z,15.313
2023-05-19T20:24:40.863Z,15.313
2023-05-19T20:26:40.839Z,15.25
2023-05-19T20:28:40.871Z,15.25
2023-05-19T20:30:40.879Z,15.188
2023-05-19T20:32:40.950Z,15.188
2023-05-19T20:34:41.077Z,15.25
2023-05-19T20:36:40.860Z,15.125
2023-05-19T20:38:40.901Z,15.062
2023-05-19T20:40:40.891Z,15.062
2023-05-19T20:42:40.844Z,15.125
2023-05-19T20:44:40.862Z,15.125
2023-05-19T20:46:40.874Z,15.062
2023-05-19T20:48:40.873Z,15.062
2023-05-19T20:50:40.855Z,15.125
2023-05-19T20:52:40.869Z,15
2023-05-19T20:54:41.007Z,15.062
2023-05-19T20:56:40.876Z,15
2023-05-19T20:58:41.012Z,15
2023-05-19T21:00:40.892Z,14.938
2023-05-19T21:02:41.367Z,15
2023-05-19T21:04:41.101Z,14.938
2023-05-19T21:06:40.919Z,14.938
2023-05-19T21:08:40.888Z,14.938
2023-05-19T21:10:41.223Z,14.875
2023-05-19T21:12:40.891Z,14.875
2023-05-19T21:14:40.895Z,14.813
2023-05-19T21:16:40.914Z,14.813
2023-05-19T21:18:40.939Z,14.813
2023-05-19T21:20:40.908Z,14.813
2023-05-19T21:22:40.918Z,14.813
2023-05-19T21:24:40.886Z,14.75
2023-05-19T21:26:40.976Z,14.813
2023-05-19T21:28:40.892Z,14.813
2023-05-19T21:30:41.060Z,14.75
2023-05-19T21:32:41.051Z,14.688
2023-05-19T21:34:40.923Z,14.688
2023-05-19T21:36:40.930Z,14.688
2023-05-19T21:38:40.922Z,14.688
2023-05-19T21:40:40.929Z,14.688
2023-05-19T21:42:40.968Z,14.688
2023-05-19T21:44:40.937Z,14.688
2023-05-19T21:46:41.172Z,14.625
2023-05-19T21:48:40.912Z,14.625
2023-05-19T21:50:40.948Z,14.563
2023-05-19T21:52:40.930Z,14.625
2023-05-19T21:54:40.918Z,14.5
2023-05-19T21:56:40.911Z,14.5
2023-05-19T21:58:41.356Z,14.5
2023-05-19T22:00:41.096Z,14.5
2023-05-19T22:02:41.311Z,14.5
2023-05-19T22:04:40.969Z,14.5
2023-05-19T22:06:40.947Z,14.5
2023-05-19T22:08:40.947Z,14.437
2023-05-19T22:10:40.954Z,14.437
2023-05-19T22:12:40.948Z,14.437
2023-05-19T22:14:41.018Z,14.437
2023-05-19T22:16:41.078Z,14.437
2023-05-19T22:18:41.125Z,14.375
2023-05-19T22:20:40.949Z,14.375
2023-05-19T22:22:40.952Z,14.313
2023-05-19T22:24:40.954Z,14.25
2023-05-19T22:26:40.958Z,14.313
2023-05-19T22:28:40.956Z,14.313
2023-05-19T22:30:42.062Z,14.375
2023-05-19T22:32:41.084Z,14.375
2023-05-19T22:34:41.229Z,14.313
2023-05-19T22:36:40.948Z,14.313
2023-05-19T22:38:40.943Z,14.25
2023-05-19T22:40:40.939Z,14.25
2023-05-19T22:42:40.963Z,14.25
2023-05-19T22:44:40.955Z,14.188
2023-05-19T22:46:41.152Z,14.25
2023-05-19T22:48:40.980Z,14.188
2023-05-19T22:50:40.959Z,14.125
2023-05-19T22:52:41.095Z,14.125
2023-05-19T22:54:40.961Z,14.188
2023-05-19T22:56:40.970Z,14.188
2023-05-19T22:58:40.964Z,14.188
2023-05-19T23:00:40.974Z,14.125
2023-05-19T23:02:41.195Z,14.125
2023-05-19T23:04:40.986Z,14
2023-05-19T23:06:40.961Z,14.063
2023-05-19T23:08:40.991Z,14
2023-05-19T23:10:40.985Z,14
2023-05-19T23:12:40.976Z,14
2023-05-19T23:14:40.989Z,14
2023-05-19T23:16:41.166Z,13.938
2023-05-19T23:18:41.202Z,13.938
2023-05-19T23:20:40.972Z,13.938
2023-05-19T23:22:40.987Z,13.938
2023-05-19T23:24:41.021Z,13.938
2023-05-19T23:26:41.113Z,13.938
2023-05-19T23:28:41.016Z,13.875
2023-05-19T23:30:40.995Z,13.812
2023-05-19T23:32:41.285Z,13.812
2023-05-19T23:34:41.096Z,13.875
2023-05-19T23:36:41.010Z,13.875
2023-05-19T23:38:41.016Z,13.812
2023-05-19T23:40:41.125Z,13.812
2023-05-19T23:42:41.031Z,13.75
2023-05-19T23:44:41.005Z,13.75
2023-05-19T23:46:41.056Z,13.75
2023-05-19T23:48:41.054Z,13.688
2023-05-19T23:50:41.063Z,13.688
2023-05-19T23:52:41.217Z,13.688
2023-05-19T23:54:41.020Z,13.688
2023-05-19T23:56:41.029Z,13.625
2023-05-19T23:58:41.147Z,13.625
